Time;durP1;ratioP1;P1;durP2;ratioP2;P2;SDS_P1;SDS_P2;PMS_P1;PMS_P2;Temp;Humidity;BMP_temperature;BMP_pressure;BME280_temperature;BME280_humidity;BME280_pressure;Samples;Min_cycle;Max_cycle;Signal;HPM_P1;HPM_P2
2022/11/24 00:00:21;;;;;;;13.18;3.08;;;;;;;4.08;57.38;94495.78;5040530;28;20081;-73
2022/11/24 00:02:46;;;;;;;12.77;3.10;;;;;;;4.16;57.12;94500.25;5039127;28;20156;-73
2022/11/24 00:05:11;;;;;;;11.98;3.47;;;;;;;3.86;58.29;94503.38;5040174;28;20481;-73
2022/11/24 00:07:37;;;;;;;13.77;3.28;;;;;;;3.87;58.66;94509.44;5038075;28;20110;-73
2022/11/24 00:10:02;;;;;;;16.67;3.53;;;;;;;3.28;59.46;94505.84;5038596;28;20101;-73
2022/11/24 00:12:28;;;;;;;13.75;4.00;;;;;;;3.47;60.60;94504.78;5022118;28;20069;-73
2022/11/24 00:14:53;;;;;;;11.48;3.15;;;;;;;3.35;60.35;94519.19;5040673;28;20077;-73
2022/11/24 00:17:19;;;;;;;10.13;2.60;;;;;;;3.78;59.36;94512.06;5035020;28;20612;-73
2022/11/24 00:19:44;;;;;;;10.73;3.13;;;;;;;3.20;60.46;94511.88;5037570;28;20089;-73
2022/11/24 00:22:09;;;;;;;9.23;3.25;;;;;;;4.08;57.85;94511.59;5036113;28;20103;-73
2022/11/24 00:24:35;;;;;;;11.05;2.97;;;;;;;4.44;56.30;94492.81;5040765;28;20109;-73
2022/11/24 00:27:00;;;;;;;10.65;3.10;;;;;;;4.47;56.46;94504.00;5026000;28;20097;-74
2022/11/24 00:29:26;;;;;;;10.65;4.38;;;;;;;4.24;57.39;94508.16;5043750;28;20097;-73
2022/11/24 00:31:51;;;;;;;11.32;3.28;;;;;;;4.05;57.62;94509.31;5038438;28;20128;-73
2022/11/24 00:34:17;;;;;;;11.63;2.90;;;;;;;4.01;57.18;94505.38;5042052;28;20516;-74
2022/11/24 00:36:42;;;;;;;6.53;2.35;;;;;;;3.95;57.82;94520.00;5042952;28;20109;-73
2022/11/24 00:39:12;;;;;;;7.43;2.92;;;;;;;4.32;56.96;94513.41;5042765;28;20470;-73
2022/11/24 00:41:37;;;;;;;22.00;3.85;;;;;;;3.63;58.52;94517.16;5039089;28;20097;-74
2022/11/24 00:44:03;;;;;;;9.32;3.05;;;;;;;4.23;57.66;94506.50;5041143;28;20546;-73
2022/11/24 00:46:28;;;;;;;8.38;2.58;;;;;;;4.10;57.69;94514.06;5040516;28;20107;-73
2022/11/24 00:48:54;;;;;;;14.25;4.00;;;;;;;4.15;57.60;94507.31;5038764;28;20529;-73
2022/11/24 00:51:20;;;;;;;13.57;3.03;;;;;;;4.18;57.37;94514.06;5041048;28;20086;-73
2022/11/24 00:53:46;;;;;;;13.15;3.80;;;;;;;3.94;58.30;94518.34;5041045;28;20179;-73
2022/11/24 00:56:11;;;;;;;12.50;5.60;;;;;;;4.07;57.65;94516.06;5041732;28;20143;-73
2022/11/24 00:58:37;;;;;;;8.90;2.55;;;;;;;4.16;57.29;94518.69;5043499;28;20081;-74
2022/11/24 01:01:06;;;;;;;13.15;2.80;;;;;;;3.80;59.03;94528.53;5023543;28;20109;-73
2022/11/24 01:03:32;;;;;;;13.52;3.50;;;;;;;3.64;59.53;94531.97;5041338;28;20081;-73
2022/11/24 01:06:07;;;;;;;10.05;2.72;;;;;;;3.65;58.91;94543.31;5041541;28;20101;-74
2022/11/24 01:08:33;;;;;;;11.77;3.30;;;;;;;3.68;58.99;94545.63;5024401;28;20104;-73
2022/11/24 01:11:17;;;;;;;15.25;3.22;;;;;;;3.98;57.48;94553.09;5042109;28;20168;-73
2022/11/24 01:13:44;;;;;;;11.80;2.75;;;;;;;4.06;57.25;94553.09;5040810;28;20566;-73
2022/11/24 01:16:26;;;;;;;18.48;3.65;;;;;;;3.92;58.44;94554.56;5040209;28;20164;-73
2022/11/24 01:18:52;;;;;;;11.88;2.92;;;;;;;4.14;57.60;94552.25;5042678;28;20637;-74
2022/11/24 01:21:17;;;;;;;16.17;6.30;;;;;;;4.45;56.95;94549.81;5040314;28;20101;-73
2022/11/24 01:23:43;;;;;;;15.48;3.45;;;;;;;4.69;56.00;94549.94;5041986;28;20135;-74
2022/11/24 01:26:10;;;;;;;12.13;3.13;;;;;;;4.64;55.70;94553.09;5039932;28;20192;-73
2022/11/24 01:28:35;;;;;;;14.90;3.30;;;;;;;4.90;55.13;94562.59;5024712;28;20117;-73
2022/11/24 01:31:02;;;;;;;14.07;3.35;;;;;;;4.08;57.19;94561.66;5036246;28;20561;-73
2022/11/24 01:33:28;;;;;;;11.55;3.22;;;;;;;4.21;57.22;94565.63;5041423;28;20105;-73
2022/11/24 01:35:53;;;;;;;12.77;3.90;;;;;;;4.72;56.02;94565.44;5041404;28;20096;-73
2022/11/24 01:38:19;;;;;;;14.05;3.22;;;;;;;4.45;56.58;94575.34;5023613;28;20125;-73
2022/11/24 01:40:44;;;;;;;13.48;3.13;;;;;;;4.12;56.30;94576.13;5039556;28;20554;-74
2022/11/24 01:43:20;;;;;;;11.13;3.10;;;;;;;4.64;56.25;94568.91;5021303;28;20585;-74
2022/11/24 01:45:46;;;;;;;14.50;3.35;;;;;;;4.62;55.49;94570.88;5039784;28;20159;-73
2022/11/24 01:48:24;;;;;;;14.30;3.40;;;;;;;4.87;54.72;94562.13;5042382;28;20097;-75
2022/11/24 01:50:52;;;;;;;11.90;3.10;;;;;;;4.65;55.54;94567.06;5040540;28;20134;-73
2022/11/24 01:53:18;;;;;;;15.63;3.33;;;;;;;3.74;58.96;94576.56;5023456;28;20196;-74
2022/11/24 01:55:43;;;;;;;13.75;4.55;;;;;;;4.93;55.20;94572.00;5041334;28;20588;-73
2022/11/24 01:58:22;;;;;;;16.27;3.28;;;;;;;4.91;54.98;94574.81;5041273;28;20109;-74
2022/11/24 02:00:48;;;;;;;20.52;5.60;;;;;;;5.06;54.54;94576.75;5040646;28;20112;-74
2022/11/24 02:03:15;;;;;;;10.77;3.15;;;;;;;4.89;55.25;94587.31;5040492;28;20550;-73
2022/11/24 02:05:48;;;;;;;10.77;2.65;;;;;;;5.12;54.35;94578.75;5024006;28;20621;-74
2022/11/24 02:08:27;;;;;;;10.27;3.28;;;;;;;5.18;54.69;94571.97;5023973;28;20089;-74
2022/11/24 02:10:52;;;;;;;;;;;;;;;4.53;56.43;94585.06;5040627;28;20084;-74
2022/11/24 02:13:18;;;;;;;12.60;4.97;;;;;;;3.87;58.84;94586.66;5039671;28;20338;-73
2022/11/24 02:15:43;;;;;;;16.05;3.63;;;;;;;4.09;57.49;94592.28;5023219;28;20081;-73
2022/11/24 02:18:09;;;;;;;14.80;3.17;;;;;;;4.38;57.01;94591.00;5024338;28;20102;-74
2022/11/24 02:20:34;;;;;;;18.13;3.70;;;;;;;4.84;55.84;94584.38;5038168;28;20089;-73
2022/11/24 02:23:22;;;;;;;10.95;3.25;;;;;;;4.56;57.33;94587.38;5023191;28;20445;-74
2022/11/24 02:26:05;;;;;;;12.52;3.92;;;;;;;4.38;57.17;94603.31;5024610;28;20536;-73
2022/11/24 02:28:31;;;;;;;10.82;2.38;;;;;;;4.55;56.84;94601.53;5037492;28;20698;-73
2022/11/24 02:30:57;;;;;;;14.82;3.25;;;;;;;5.04;55.55;94595.38;5023762;28;20727;-73
2022/11/24 02:33:24;;;;;;;17.55;3.58;;;;;;;4.74;56.12;94599.53;5023254;28;20571;-73
2022/11/24 02:35:50;;;;;;;12.90;3.70;;;;;;;4.93;55.65;94595.75;5023985;28;20195;-73
2022/11/24 02:38:15;;;;;;;9.10;3.42;;;;;;;4.62;56.74;94596.44;5038235;28;20900;-74
2022/11/24 02:40:43;;;;;;;18.85;4.20;;;;;;;4.05;57.38;94597.03;5041382;28;20184;-74
2022/11/24 02:43:11;;;;;;;15.15;3.80;;;;;;;4.40;57.50;94590.81;5039347;28;20151;-73
2022/11/24 02:45:37;;;;;;;12.38;3.20;;;;;;;4.06;58.17;94598.69;5023080;28;20132;-73
2022/11/24 02:48:02;;;;;;;11.65;3.70;;;;;;;4.32;57.44;94592.47;5039025;28;20729;-73
2022/11/24 02:50:28;;;;;;;10.15;2.90;;;;;;;2.99;62.19;94605.16;5019217;28;20359;-73
2022/11/24 02:52:53;;;;;;;12.70;3.63;;;;;;;3.88;59.32;94601.44;5036638;28;20094;-73
2022/11/24 02:55:19;;;;;;;12.77;3.28;;;;;;;3.27;61.80;94610.25;5039082;28;20472;-73
2022/11/24 02:57:44;;;;;;;10.05;3.00;;;;;;;3.67;60.39;94605.34;5023198;28;20467;-73
2022/11/24 03:00:10;;;;;;;12.65;3.47;;;;;;;3.70;60.37;94598.94;5022401;28;20513;-73
2022/11/24 03:02:36;;;;;;;15.07;3.05;;;;;;;3.80;59.43;94601.44;5022462;28;20637;-73
2022/11/24 03:05:01;;;;;;;13.57;2.92;;;;;;;3.74;59.88;94610.00;5039640;28;20175;-73
2022/11/24 03:07:27;;;;;;;16.13;3.80;;;;;;;3.78;59.01;94601.59;5038918;28;20582;-73
2022/11/24 03:09:52;;;;;;;13.13;3.40;;;;;;;3.59;61.00;94609.75;5039924;28;20155;-73
2022/11/24 03:12:18;;;;;;;14.05;3.13;;;;;;;3.67;60.03;94607.16;5038643;28;20093;-73
2022/11/24 03:14:43;;;;;;;16.63;3.50;;;;;;;3.83;58.53;94593.22;5041432;28;20143;-73
2022/11/24 03:17:08;;;;;;;10.90;3.03;;;;;;;4.06;58.90;94596.06;5037252;28;20391;-73
2022/11/24 03:19:34;;;;;;;14.90;3.63;;;;;;;4.42;57.55;94600.22;5040033;28;20104;-73
2022/11/24 03:21:59;;;;;;;16.83;4.53;;;;;;;4.09;59.01;94591.47;5039539;28;20492;-74
2022/11/24 03:24:25;;;;;;;22.45;4.45;;;;;;;4.04;58.50;94595.41;5041059;28;20087;-73
2022/11/24 03:26:50;;;;;;;16.17;3.55;;;;;;;3.42;59.87;94594.72;5038730;28;20610;-73
2022/11/24 03:29:16;;;;;;;17.23;3.67;;;;;;;3.46;59.45;94597.03;5040495;28;20113;-73
2022/11/24 03:31:41;;;;;;;16.20;3.53;;;;;;;3.38;60.76;94601.28;5035296;28;20304;-74
2022/11/24 03:34:06;;;;;;;17.88;3.70;;;;;;;3.74;58.88;94599.47;5038299;28;20467;-73
2022/11/24 03:36:32;;;;;;;15.05;3.13;;;;;;;3.37;60.76;94594.34;5038362;28;20262;-73
2022/11/24 03:38:57;;;;;;;15.75;3.83;;;;;;;3.65;60.22;94601.22;5039666;28;20186;-73
2022/11/24 03:41:23;;;;;;;11.57;3.08;;;;;;;4.05;58.81;94598.88;5022305;28;20470;-73
2022/11/24 03:43:48;;;;;;;16.33;3.63;;;;;;;3.20;61.07;94609.22;5020768;28;20089;-74
2022/11/24 03:46:13;;;;;;;16.73;3.50;;;;;;;3.78;59.27;94616.59;5021600;28;20113;-73
2022/11/24 03:48:39;;;;;;;18.55;4.70;;;;;;;3.77;59.78;94609.66;5037377;28;20126;-73
2022/11/24 03:51:04;;;;;;;18.45;3.78;;;;;;;2.79;62.93;94622.94;5039408;28;20143;-73
2022/11/24 03:53:30;;;;;;;14.68;3.28;;;;;;;3.18;61.06;94611.19;5021159;28;20110;-73
2022/11/24 03:55:56;;;;;;;14.35;3.22;;;;;;;3.09;61.32;94647.16;5002623;28;20085;-73
2022/11/24 03:58:21;;;;;;;13.98;3.22;;;;;;;2.80;62.19;94629.88;5015543;28;20102;-73
2022/11/24 04:00:47;;;;;;;20.23;3.92;;;;;;;2.64;62.08;94636.66;5023554;28;20113;-73
2022/11/24 04:03:13;;;;;;;17.02;3.20;;;;;;;3.35;61.42;94625.25;5022321;28;20090;-73
2022/11/24 04:05:38;;;;;;;15.88;3.42;;;;;;;3.51;60.62;94631.63;5021927;28;20672;-73
2022/11/24 04:08:04;;;;;;;17.23;3.63;;;;;;;2.89;60.85;94630.72;5024334;28;20150;-73
2022/11/24 04:10:31;;;;;;;23.27;4.20;;;;;;;2.72;62.25;94629.81;5022284;28;20109;-73
2022/11/24 04:12:56;;;;;;;15.13;3.25;;;;;;;3.12;61.08;94640.75;5023140;28;20515;-73
2022/11/24 04:15:21;;;;;;;13.50;2.80;;;;;;;2.60;63.19;94637.09;5020499;28;20100;-73
2022/11/24 04:17:48;;;;;;;10.90;2.67;;;;;;;2.94;62.37;94641.63;5022578;28;20106;-73
2022/11/24 04:20:14;;;;;;;18.23;3.55;;;;;;;2.89;61.43;94633.38;5029292;28;20260;-73
2022/11/24 04:22:39;;;;;;;17.67;3.45;;;;;;;3.32;60.66;94638.72;5022416;28;20467;-73
2022/11/24 04:25:05;;;;;;;22.17;3.45;;;;;;;3.47;60.13;94632.91;5020522;28;20568;-74
2022/11/24 04:27:32;;;;;;;14.48;3.50;;;;;;;3.99;58.28;94639.84;5023203;28;20093;-73
2022/11/24 04:29:57;;;;;;;15.40;3.50;;;;;;;2.79;62.74;94643.97;5021787;28;20329;-73
2022/11/24 04:32:22;;;;;;;12.25;3.78;;;;;;;3.51;60.25;94650.84;5023484;28;20120;-73
2022/11/24 04:34:48;;;;;;;13.48;2.97;;;;;;;3.40;60.48;94641.41;5041448;28;20078;-73
2022/11/24 04:37:13;;;;;;;15.02;3.75;;;;;;;2.99;61.51;94649.88;5024316;28;20117;-74
2022/11/24 04:39:39;;;;;;;18.13;3.92;;;;;;;3.19;60.06;94651.50;5043048;28;20464;-73
2022/11/24 04:42:04;;;;;;;13.38;3.03;;;;;;;3.66;58.50;94668.69;5041998;28;20102;-73
2022/11/24 04:44:30;;;;;;;14.80;3.15;;;;;;;3.94;58.57;94657.91;5041997;28;20564;-73
2022/11/24 04:46:55;;;;;;;6.97;2.67;;;;;;;4.23;57.06;94667.22;5042543;28;20077;-73
2022/11/24 04:49:21;;;;;;;15.52;3.78;;;;;;;4.46;56.59;94658.72;5039155;28;20101;-73
2022/11/24 04:51:46;;;;;;;16.33;3.72;;;;;;;3.87;57.55;94667.44;5040602;28;20473;-73
2022/11/24 04:54:12;;;;;;;18.15;3.45;;;;;;;2.04;63.93;94671.41;5043644;28;20093;-73
2022/11/24 04:56:38;;;;;;;14.82;3.78;;;;;;;3.73;59.52;94674.97;5024720;28;20795;-73
2022/11/24 04:59:04;;;;;;;17.20;3.08;;;;;;;3.80;59.12;94660.19;5025149;28;20086;-73
2022/11/24 05:01:30;;;;;;;17.88;3.55;;;;;;;4.26;57.61;94679.25;5040780;28;20469;-73
2022/11/24 05:03:55;;;;;;;18.02;3.83;;;;;;;3.27;61.67;94669.94;5042427;28;20078;-73
2022/11/24 05:06:21;;;;;;;19.15;3.72;;;;;;;3.20;59.87;94680.25;5040014;28;20156;-73
2022/11/24 05:08:47;;;;;;;14.18;2.95;;;;;;;3.74;58.77;94688.97;5041791;28;20120;-73
2022/11/24 05:11:13;;;;;;;18.27;3.53;;;;;;;3.62;59.94;94678.72;5040724;28;20095;-73
2022/11/24 05:13:39;;;;;;;17.05;3.67;;;;;;;4.39;57.00;94682.22;5041209;28;20101;-73
2022/11/24 05:16:04;;;;;;;20.77;4.00;;;;;;;4.17;57.47;94689.78;5040365;28;20069;-73
2022/11/24 05:18:30;;;;;;;16.58;3.33;;;;;;;4.78;55.84;94699.25;5043341;28;20176;-73
2022/11/24 05:20:56;;;;;;;15.20;3.53;;;;;;;4.57;56.31;94692.66;5041482;28;20381;-73
2022/11/24 05:23:22;;;;;;;17.73;3.88;;;;;;;4.29;57.10;94700.03;5042336;28;20088;-73
2022/11/24 05:25:47;;;;;;;17.50;3.47;;;;;;;4.79;55.35;94700.06;5041494;28;20520;-73
2022/11/24 05:28:12;;;;;;;14.93;2.95;;;;;;;4.41;56.32;94708.44;5022492;28;20840;-73
2022/11/24 05:30:38;;;;;;;17.00;3.60;;;;;;;4.74;55.10;94707.66;5042531;28;20081;-73
2022/11/24 05:33:08;;;;;;;12.50;3.35;;;;;;;4.39;56.10;94713.06;5041206;28;20200;-74
2022/11/24 05:35:35;;;;;;;20.55;4.03;;;;;;;3.79;59.11;94718.28;5025223;28;20164;-73
2022/11/24 05:38:00;;;;;;;13.07;3.90;;;;;;;4.42;56.83;94720.66;5040096;28;20113;-73
2022/11/24 05:40:26;;;;;;;10.70;3.35;;;;;;;4.77;55.57;94721.34;5040896;28;20426;-73
2022/11/24 05:42:51;;;;;;;16.45;3.33;;;;;;;4.57;56.26;94718.19;5040031;28;20077;-74
2022/11/24 05:45:18;;;;;;;15.73;3.08;;;;;;;4.54;56.79;94718.50;5023086;28;20683;-74
2022/11/24 05:47:43;;;;;;;20.23;3.20;;;;;;;4.09;58.23;94725.81;5041882;28;20117;-73
2022/11/24 05:50:10;;;;;;;17.58;3.03;;;;;;;4.12;57.48;94718.41;5036400;28;20477;-73
2022/11/24 05:52:35;;;;;;;14.38;3.80;;;;;;;4.61;56.42;94722.16;5038378;28;20073;-73
2022/11/24 05:55:01;;;;;;;17.23;3.28;;;;;;;4.57;56.31;94726.09;5041147;28;20089;-73
2022/11/24 05:57:26;;;;;;;17.33;3.63;;;;;;;3.84;57.88;94721.25;5038712;28;20519;-73
2022/11/24 05:59:52;;;;;;;18.85;3.88;;;;;;;3.24;60.38;94738.66;5041401;28;20361;-73
2022/11/24 06:02:17;;;;;;;11.20;3.20;;;;;;;4.62;56.30;94728.25;5040150;28;20112;-73
2022/11/24 06:04:43;;;;;;;16.02;3.58;;;;;;;4.31;56.90;94725.22;5024476;28;20093;-73
2022/11/24 06:07:10;;;;;;;15.32;3.92;;;;;;;4.36;57.31;94737.94;5040107;28;20131;-74
2022/11/24 06:09:39;;;;;;;14.57;3.05;;;;;;;4.90;55.25;94730.59;5024402;28;20112;-74
2022/11/24 06:12:07;;;;;;;;;;;;;;;4.90;55.40;94741.16;5022492;28;20426;-73
2022/11/24 06:14:33;;;;;;;21.17;4.93;;;;;;;5.07;54.65;94742.00;5042066;28;20062;-73
2022/11/24 06:16:58;;;;;;;17.90;7.05;;;;;;;4.39;56.59;94749.94;5039207;28;20105;-74
2022/11/24 06:19:24;;;;;;;15.23;3.95;;;;;;;4.80;54.92;94736.84;5043695;28;20084;-73
2022/11/24 06:21:49;;;;;;;15.48;4.28;;;;;;;5.47;53.66;94737.69;5039197;28;20120;-74
2022/11/24 06:24:15;;;;;;;11.70;3.42;;;;;;;5.10;54.63;94746.94;5040800;28;20478;-73
2022/11/24 06:26:40;;;;;;;18.42;4.35;;;;;;;4.68;55.64;94746.06;5039782;28;20115;-74
2022/11/24 06:29:06;;;;;;;18.65;3.70;;;;;;;4.42;56.76;94755.72;5040594;28;20170;-73
2022/11/24 06:31:31;;;;;;;9.13;3.45;;;;;;;4.70;56.31;94758.09;5040886;28;20415;-73
2022/11/24 06:33:58;;;;;;;12.68;2.97;;;;;;;5.21;54.71;94751.06;5041934;28;20121;-73
2022/11/24 06:36:24;;;;;;;14.65;3.22;;;;;;;4.95;55.49;94744.09;5022075;28;20069;-73
2022/11/24 06:38:49;;;;;;;10.75;3.25;;;;;;;5.16;54.75;94745.44;5040364;28;20539;-74
2022/11/24 06:41:15;;;;;;;13.88;3.25;;;;;;;5.21;53.91;94748.44;5022285;28;20444;-74
2022/11/24 06:43:40;;;;;;;14.07;3.70;;;;;;;5.34;54.30;94740.03;5040214;28;20082;-73
2022/11/24 06:46:06;;;;;;;20.08;4.53;;;;;;;5.24;54.37;94749.91;5038623;28;20098;-74
2022/11/24 06:48:31;;;;;;;17.45;4.18;;;;;;;4.42;55.82;94750.44;5019920;28;20135;-73
2022/11/24 06:50:58;;;;;;;18.73;3.80;;;;;;;4.66;55.20;94756.75;5022005;28;20088;-74
2022/11/24 06:53:23;;;;;;;14.00;3.30;;;;;;;5.02;55.30;94760.94;5023647;28;20110;-74
2022/11/24 06:55:49;;;;;;;11.60;3.03;;;;;;;5.63;53.22;94754.50;5011016;28;20082;-74
2022/11/24 06:58:14;;;;;;;15.48;3.20;;;;;;;5.09;54.68;94761.13;5017424;28;20117;-64
2022/11/24 07:00:40;;;;;;;18.23;3.10;;;;;;;4.83;55.56;94770.78;5016826;28;20167;-64
2022/11/24 07:03:05;;;;;;;16.42;3.25;;;;;;;4.79;55.89;94777.38;5019634;28;20088;-64
2022/11/24 07:05:30;;;;;;;12.98;3.20;;;;;;;5.35;54.59;94779.41;5025641;28;20101;-64
2022/11/24 07:07:59;;;;;;;25.83;11.27;;;;;;;5.21;55.13;94777.47;5041392;28;20453;-64
2022/11/24 07:10:24;;;;;;;16.60;4.00;;;;;;;4.02;57.71;94780.94;5038745;28;20101;-64
2022/11/24 07:12:50;;;;;;;12.48;2.85;;;;;;;4.64;56.52;94785.13;5040027;28;20121;-64
2022/11/24 07:15:15;;;;;;;13.30;3.88;;;;;;;5.10;55.57;94781.22;5037867;28;20081;-64
2022/11/24 07:17:40;;;;;;;17.75;3.83;;;;;;;4.47;55.73;94791.31;5032635;28;20105;-64
2022/11/24 07:20:07;;;;;;;11.30;4.00;;;;;;;5.03;55.84;94788.97;5038791;28;20085;-64
2022/11/24 07:22:32;;;;;;;14.75;4.05;;;;;;;4.64;56.03;94793.03;5035489;28;20102;-64
2022/11/24 07:24:58;;;;;;;16.88;5.80;;;;;;;4.64;56.58;94794.81;5036202;28;20108;-63
2022/11/24 07:27:23;;;;;;;13.73;4.57;;;;;;;5.10;55.47;94794.44;5036058;28;20101;-64
2022/11/24 07:29:48;;;;;;;16.55;4.03;;;;;;;5.21;55.04;94799.38;5034867;28;20109;-64
2022/11/24 07:32:14;;;;;;;18.45;4.03;;;;;;;5.38;54.31;94803.84;5032258;28;20085;-63
2022/11/24 07:34:40;;;;;;;11.07;4.25;;;;;;;5.48;54.16;94809.81;5033800;28;20090;-63
2022/11/24 07:37:05;;;;;;;17.55;4.38;;;;;;;5.54;54.29;94803.84;5038156;28;20532;-63
2022/11/24 07:39:31;;;;;;;16.00;3.25;;;;;;;4.77;56.58;94811.03;5033921;28;20132;-64
2022/11/24 07:41:59;;;;;;;18.92;3.70;;;;;;;5.34;54.98;94822.66;5037708;28;20441;-64
2022/11/24 07:44:25;;;;;;;16.60;3.60;;;;;;;5.30;54.74;94818.69;5037742;28;20089;-64
2022/11/24 07:46:51;;;;;;;15.73;3.47;;;;;;;5.31;54.94;94825.63;5033129;28;20606;-64
2022/11/24 07:49:17;;;;;;;12.93;3.15;;;;;;;4.59;57.41;94829.56;5035482;28;20113;-64
2022/11/24 07:51:42;;;;;;;15.23;4.13;;;;;;;4.43;58.06;94828.53;5036416;28;20111;-64
2022/11/24 07:54:07;;;;;;;17.65;4.35;;;;;;;3.53;59.98;94830.50;5038329;28;20102;-64
2022/11/24 07:56:33;;;;;;;14.02;2.80;;;;;;;3.69;59.85;94844.75;5036814;28;20430;-64
2022/11/24 07:58:59;;;;;;;11.63;2.97;;;;;;;3.75;60.08;94851.22;5036289;28;20073;-63
2022/11/24 08:01:24;;;;;;;14.77;3.80;;;;;;;3.62;60.55;94834.03;5030627;28;20566;-64
2022/11/24 08:03:50;;;;;;;21.27;3.95;;;;;;;3.78;59.61;94854.38;5028395;28;20073;-65
2022/11/24 08:06:16;;;;;;;14.70;2.85;;;;;;;4.32;58.92;94863.91;5035279;28;20101;-64
2022/11/24 08:08:41;;;;;;;14.07;3.30;;;;;;;3.83;60.69;94869.72;5034867;28;20140;-64
2022/11/24 08:11:08;;;;;;;15.50;3.78;;;;;;;4.50;58.49;94856.91;5037219;28;20076;-64
2022/11/24 08:13:34;;;;;;;12.05;3.35;;;;;;;4.35;59.04;94860.13;5035138;28;20528;-65
2022/11/24 08:16:04;;;;;;;19.95;5.07;;;;;;;4.63;58.37;94862.53;5035856;28;20081;-64
2022/11/24 08:18:29;;;;;;;13.90;4.05;;;;;;;4.67;58.23;94863.91;5040114;28;20184;-64
2022/11/24 08:20:57;;;;;;;18.50;4.38;;;;;;;4.02;59.98;94867.88;5038531;28;20477;-64
2022/11/24 08:23:22;;;;;;;14.65;3.35;;;;;;;3.79;60.86;94871.00;5039937;28;20085;-64
2022/11/24 08:25:47;;;;;;;12.20;2.92;;;;;;;4.32;59.33;94871.81;5039782;28;20278;-64
2022/11/24 08:28:13;;;;;;;14.68;3.13;;;;;;;3.46;60.13;94871.56;5040295;28;20097;-64
2022/11/24 08:30:38;;;;;;;11.68;2.55;;;;;;;4.56;58.75;94869.47;5035539;28;20116;-64
2022/11/24 08:33:04;;;;;;;13.13;2.80;;;;;;;4.71;58.17;94875.78;5033065;28;20124;-64
2022/11/24 08:35:29;;;;;;;14.73;3.13;;;;;;;4.40;59.12;94878.09;5026162;28;20084;-64
2022/11/24 08:37:54;;;;;;;11.00;3.83;;;;;;;4.08;59.58;94893.56;5035247;28;20124;-66
2022/11/24 08:40:20;;;;;;;13.30;4.22;;;;;;;3.55;61.46;94885.63;5039318;28;20597;-64
2022/11/24 08:42:46;;;;;;;9.55;2.72;;;;;;;3.59;61.60;94902.78;5039263;28;20073;-64
2022/11/24 08:45:11;;;;;;;10.27;2.42;;;;;;;3.57;61.41;94896.00;5036981;28;20188;-64
2022/11/24 08:47:37;;;;;;;17.13;3.85;;;;;;;3.70;61.49;94909.59;5041969;28;20097;-63
2022/11/24 08:50:04;;;;;;;13.55;3.15;;;;;;;2.81;64.26;94906.72;5039871;28;20105;-63
2022/11/24 08:52:29;;;;;;;9.50;2.88;;;;;;;2.98;62.26;94907.75;5049470;28;20446;-63
2022/11/24 08:54:55;;;;;;;6.43;2.38;;;;;;;3.50;61.43;94909.75;5039499;28;20321;-64
2022/11/24 08:57:20;;;;;;;10.77;2.92;;;;;;;3.39;62.36;94913.44;5041233;28;20112;-63
2022/11/24 08:59:46;;;;;;;6.78;1.92;;;;;;;3.69;61.18;94918.47;5041001;28;20085;-64
2022/11/24 09:02:12;;;;;;;7.18;2.30;;;;;;;4.25;59.40;94917.41;5041418;28;20100;-64
2022/11/24 09:04:37;;;;;;;9.57;2.63;;;;;;;4.29;58.96;94921.38;5038455;28;20082;-63
2022/11/24 09:07:03;;;;;;;9.07;2.58;;;;;;;4.57;58.28;94923.84;5040978;28;20073;-63
2022/11/24 09:09:28;;;;;;;13.98;3.28;;;;;;;4.64;57.69;94931.94;5039121;28;20324;-63
2022/11/24 09:11:53;;;;;;;11.10;2.25;;;;;;;4.09;59.38;94937.41;5041237;28;20100;-63
2022/11/24 09:14:19;;;;;;;13.45;3.47;;;;;;;4.36;58.68;94932.97;5040462;28;20398;-64
2022/11/24 09:16:44;;;;;;;10.63;2.83;;;;;;;3.89;60.09;94934.09;5036740;28;20667;-64
2022/11/24 09:19:10;;;;;;;9.05;2.63;;;;;;;4.00;59.65;94936.50;5041280;28;20092;-63
2022/11/24 09:21:38;;;;;;;13.93;2.58;;;;;;;4.40;59.41;94936.09;5037968;28;20115;-64
2022/11/24 09:24:04;;;;;;;6.33;2.33;;;;;;;4.54;58.47;94943.44;5041897;28;20542;-64
2022/11/24 09:26:31;;;;;;;16.25;3.35;;;;;;;4.28;58.41;94953.97;5039297;28;20104;-63
2022/11/24 09:28:57;;;;;;;17.27;4.28;;;;;;;4.53;58.06;94949.66;5040932;28;20570;-63
2022/11/24 09:31:24;;;;;;;13.32;2.92;;;;;;;4.05;59.05;94965.03;5029439;28;20393;-63
2022/11/24 09:33:50;;;;;;;9.80;2.72;;;;;;;4.32;59.42;94956.16;5040950;28;20184;-63
2022/11/24 09:36:15;;;;;;;13.20;3.15;;;;;;;4.23;58.01;94965.00;5042109;28;20116;-63
2022/11/24 09:38:41;;;;;;;12.05;2.83;;;;;;;4.02;59.30;94957.44;5038437;28;20117;-63
2022/11/24 09:41:12;;;;;;;10.45;3.05;;;;;;;4.18;59.27;94964.59;5038377;28;20462;-63
2022/11/24 09:43:40;;;;;;;11.00;4.65;;;;;;;4.30;58.34;94967.81;5041994;28;20577;-63
2022/11/24 09:46:10;;;;;;;14.82;5.22;;;;;;;3.83;59.46;94966.31;5021591;28;20101;-64
2022/11/24 09:48:38;;;;;;;6.30;2.65;;;;;;;4.38;58.20;94970.50;5038630;28;20136;-63
2022/11/24 09:51:03;;;;;;;9.20;2.17;;;;;;;3.57;60.36;94981.06;5038799;28;20215;-63
2022/11/24 09:53:43;;;;;;;7.47;1.95;;;;;;;3.68;59.78;94978.19;5041457;28;20131;-63
2022/11/24 09:56:21;;;;;;;4.57;1.80;;;;;;;2.86;62.69;94980.75;5038089;28;20381;-63
2022/11/24 09:58:50;;;;;;;7.38;2.30;;;;;;;2.67;63.53;94981.66;5014562;28;20526;-63
2022/11/24 10:01:18;;;;;;;8.63;2.65;;;;;;;2.09;64.70;94985.13;5012761;28;20562;-63
2022/11/24 10:03:48;;;;;;;12.02;2.35;;;;;;;2.08;65.35;94988.69;5017443;28;20120;-63
2022/11/24 10:06:25;;;;;;;11.60;2.90;;;;;;;2.25;64.93;94997.66;5018988;28;20239;-63
2022/11/24 10:09:28;;;;;;;9.05;2.72;;;;;;;1.89;65.89;94994.81;5023723;28;20117;-63
2022/11/24 10:12:26;;;;;;;11.00;2.10;;;;;;;2.47;64.27;95000.94;5036650;28;20069;-64
2022/11/24 10:15:21;;;;;;;9.27;2.40;;;;;;;2.07;65.60;95004.59;4997592;28;20146;-64
2022/11/24 10:17:50;;;;;;;14.05;3.10;;;;;;;2.16;65.07;95005.56;5013911;28;20386;-63
2022/11/24 10:20:40;;;;;;;6.18;1.55;;;;;;;2.78;63.54;95010.38;5018283;28;20537;-64
2022/11/24 10:24:03;;;;;;;7.97;1.80;;;;;;;2.38;64.05;95001.78;5017337;28;20102;-64
2022/11/24 10:26:35;;;;;;;9.70;2.22;;;;;;;2.10;64.46;95010.41;4995316;28;20601;-64
2022/11/24 10:29:01;;;;;;;8.95;2.65;;;;;;;2.65;63.09;95011.53;4994984;28;20110;-64
2022/11/24 10:31:37;;;;;;;6.40;1.92;;;;;;;2.65;62.91;95029.09;5009883;28;20089;-63
2022/11/24 10:34:13;;;;;;;12.60;3.80;;;;;;;2.43;64.01;95006.63;5017455;28;20104;-64
2022/11/24 10:36:49;;;;;;;6.88;2.95;;;;;;;2.53;63.01;95020.56;5014828;28;20105;-64
2022/11/24 10:39:27;;;;;;;7.40;1.80;;;;;;;2.81;63.08;95015.38;5019227;28;20105;-64
2022/11/24 10:42:12;;;;;;;8.88;2.50;;;;;;;2.83;62.41;95008.16;5013741;28;20570;-64
2022/11/24 10:44:38;;;;;;;5.82;1.98;;;;;;;1.66;67.35;95031.00;5005675;28;20113;-64
2022/11/24 10:47:33;;;;;;;7.93;2.13;;;;;;;1.34;70.18;95033.69;5037639;28;20115;-63
2022/11/24 10:50:04;;;;;;;8.20;2.33;;;;;;;1.42;68.37;95032.16;5034764;28;20136;-66
2022/11/24 10:52:33;;;;;;;7.13;2.40;;;;;;;1.01;71.57;95035.63;5037990;28;20123;-66
2022/11/24 10:55:03;;;;;;;;;;;;;;;1.52;70.39;95038.25;5038363;28;20575;-66
2022/11/24 10:57:32;;;;;;;19.95;8.32;;;;;;;2.16;68.34;95035.28;5039740;28;20015;-66
2022/11/24 10:59:57;;;;;;;6.25;1.77;;;;;;;1.74;69.73;95037.22;5037322;28;20572;-66
2022/11/24 11:02:46;;;;;;;5.78;2.08;;;;;;;2.52;66.49;95032.88;5038200;28;20102;-66
2022/11/24 11:05:48;;;;;;;9.52;2.50;;;;;;;2.85;64.80;95040.41;5039945;28;20435;-66
2022/11/24 11:08:20;;;;;;;7.68;2.15;;;;;;;2.53;65.45;95044.22;4996339;28;20700;-66
2022/11/24 11:10:47;;;;;;;10.32;2.50;;;;;;;2.19;65.36;95048.16;5012418;28;20090;-66
2022/11/24 11:13:51;;;;;;;9.80;2.30;;;;;;;1.65;67.37;95045.06;5028225;28;20113;-66
2022/11/24 11:16:31;;;;;;;5.28;2.08;;;;;;;1.35;68.65;95048.44;5034910;28;20089;-66
2022/11/24 11:18:57;;;;;;;7.00;2.22;;;;;;;1.01;69.04;95048.75;4997218;28;20074;-66
2022/11/24 11:21:38;;;;;;;5.93;1.85;;;;;;;1.14;69.46;95052.94;5020004;28;20108;-65
2022/11/24 11:24:13;;;;;;;10.02;2.35;;;;;;;1.78;66.34;95056.16;5014809;28;20431;-66
2022/11/24 11:26:41;;;;;;;9.25;2.45;;;;;;;2.02;65.56;95054.91;5009683;28;20209;-66
2022/11/24 11:29:06;;;;;;;10.40;2.13;;;;;;;1.99;65.45;95056.03;5013151;28;20140;-66
2022/11/24 11:31:32;;;;;;;5.83;1.63;;;;;;;2.39;64.08;95051.56;5017808;28;20074;-66
2022/11/24 11:34:09;;;;;;;6.75;2.00;;;;;;;2.19;65.06;95058.66;5017196;28;20348;-65
2022/11/24 11:36:44;;;;;;;6.05;1.58;;;;;;;3.19;61.65;95064.50;5021832;28;20565;-66
2022/11/24 11:39:36;;;;;;;9.57;1.90;;;;;;;3.01;61.69;95070.50;5022494;28;20584;-66